Time;durP1;ratioP1;P1;durP2;ratioP2;P2;SDS_P1;SDS_P2;PMS_P1;PMS_P2;Temp;Humidity;BMP_temperature;BMP_pressure;BME280_temperature;BME280_humidity;BME280_pressure;Samples;Min_cycle;Max_cycle;Signal;HPM_P1;HPM_P2
2022/02/01 04:43:07;;;;;;;11.00;2.33;;;3.40;99.90;;;;;;5823584;23;21024;-76
2022/02/01 04:45:34;;;;;;;11.32;2.08;;;3.30;99.90;;;;;;4860529;29;20050;-76
2022/02/01 04:48:02;;;;;;;9.75;2.08;;;3.30;99.90;;;;;;4859940;29;20148;-75
2022/02/01 04:50:31;;;;;;;12.65;2.45;;;3.40;99.90;;;;;;4860423;29;20555;-76
2022/02/01 04:52:59;;;;;;;12.60;2.40;;;3.30;99.90;;;;;;4859940;29;20078;-79
2022/02/01 04:55:37;;;;;;;14.73;2.53;;;3.30;99.90;;;;;;4860312;29;20174;-77
2022/02/01 04:58:06;;;;;;;10.20;2.53;;;3.30;99.90;;;;;;4860372;29;20056;-78
2022/02/01 05:00:33;;;;;;;15.82;2.83;;;3.30;99.90;;;;;;4860095;29;20503;-77
2022/02/01 05:03:01;;;;;;;12.93;2.13;;;3.30;99.90;;;;;;4860406;29;20045;-78
2022/02/01 05:05:29;;;;;;;13.32;2.28;;;3.30;99.90;;;;;;4860204;29;20411;-79
2022/02/01 05:08:00;;;;;;;10.02;2.20;;;3.20;99.90;;;;;;4860362;29;20053;-78
2022/02/01 05:10:28;;;;;;;12.57;2.25;;;3.20;99.90;;;;;;4860080;29;20503;-79
2022/02/01 05:12:59;;;;;;;14.07;2.30;;;3.20;99.90;;;;;;4860119;29;20046;-75
2022/02/01 05:15:28;;;;;;;14.43;2.72;;;3.20;99.90;;;;;;4860068;29;20411;-79
2022/02/01 05:17:56;;;;;;;12.88;2.63;;;3.20;99.90;;;;;;4862862;29;20140;-77
2022/02/01 05:20:39;;;;;;;15.32;2.35;;;3.20;99.90;;;;;;4862970;29;20106;-75
2022/02/01 05:23:06;;;;;;;9.48;2.30;;;3.20;99.90;;;;;;4863629;29;20145;-75
2022/02/01 05:25:33;;;;;;;11.82;2.25;;;3.20;99.90;;;;;;4863636;29;20133;-74
2022/02/01 05:28:01;;;;;;;14.00;2.30;;;3.30;99.90;;;;;;4862557;29;20056;-74
2022/02/01 05:30:29;;;;;;;13.10;2.38;;;3.20;99.90;;;;;;4862404;29;20562;-74
2022/02/01 05:32:56;;;;;;;10.43;2.17;;;3.20;99.90;;;;;;4863045;29;20050;-75
2022/02/01 05:35:24;;;;;;;12.75;2.33;;;3.20;99.90;;;;;;4863375;29;20136;-75
2022/02/01 05:37:51;;;;;;;14.13;2.40;;;3.20;99.90;;;;;;4862902;29;20495;-75
2022/02/01 05:40:19;;;;;;;9.68;1.90;;;3.20;99.90;;;;;;4863029;29;20050;-74
2022/02/01 05:42:57;;;;;;;15.45;2.40;;;3.20;99.90;;;;;;4863066;29;20158;-75
2022/02/01 05:45:25;;;;;;;12.65;2.00;;;3.20;99.90;;;;;;4862109;29;20049;-75
2022/02/01 05:47:54;;;;;;;12.38;2.17;;;3.20;99.90;;;;;;4863028;29;20049;-75
2022/02/01 05:50:23;;;;;;;11.98;2.20;;;3.20;99.90;;;;;;4862846;29;20140;-75
2022/02/01 05:52:50;;;;;;;13.55;2.00;;;3.20;99.90;;;;;;4863110;29;20089;-75
2022/02/01 05:55:17;;;;;;;12.48;2.15;;;3.20;99.90;;;;;;4862847;29;20587;-75
2022/02/01 05:57:44;;;;;;;10.25;2.20;;;3.20;99.90;;;;;;4863356;29;20085;-75
2022/02/01 06:00:16;;;;;;;14.82;2.03;;;3.20;99.90;;;;;;4862060;29;20049;-76
2022/02/01 06:02:43;;;;;;;11.13;2.00;;;3.20;99.90;;;;;;4862359;29;20088;-74
2022/02/01 06:05:11;;;;;;;12.45;2.00;;;3.20;99.90;;;;;;4862715;29;20053;-76
2022/02/01 06:07:38;;;;;;;13.75;2.38;;;3.20;99.90;;;;;;4862551;29;20056;-75
2022/02/01 06:10:06;;;;;;;11.90;2.25;;;3.20;99.90;;;;;;4862338;29;20056;-76
2022/02/01 06:12:41;;;;;;;13.35;2.17;;;3.20;99.90;;;;;;4862732;29;20140;-75
2022/02/01 06:15:10;;;;;;;11.18;1.90;;;3.20;99.90;;;;;;4862857;29;20046;-76
2022/02/01 06:17:37;;;;;;;16.05;2.15;;;3.20;99.90;;;;;;4862411;29;20049;-74
2022/02/01 06:20:05;;;;;;;11.18;2.20;;;3.20;99.90;;;;;;4862369;29;20086;-74
2022/02/01 06:22:34;;;;;;;12.02;2.53;;;3.20;99.90;;;;;;4862176;29;20064;-74
2022/02/01 06:25:01;;;;;;;12.10;1.95;;;3.10;99.90;;;;;;4862299;29;20049;-75
2022/02/01 06:27:28;;;;;;;11.52;2.38;;;3.10;99.90;;;;;;4862078;29;20054;-76
2022/02/01 06:29:56;;;;;;;9.73;2.40;;;3.20;99.90;;;;;;4861801;29;20053;-76
2022/02/01 06:32:23;;;;;;;10.00;1.80;;;3.10;99.90;;;;;;4862405;29;20045;-75
2022/02/01 06:34:50;;;;;;;13.07;2.03;;;3.20;99.90;;;;;;4861463;29;20057;-75
2022/02/01 06:37:17;;;;;;;10.60;2.20;;;3.10;99.90;;;;;;4862060;29;20554;-76
2022/02/01 06:39:45;;;;;;;14.05;2.47;;;3.10;99.90;;;;;;4862220;29;20054;-77
2022/02/01 06:42:13;;;;;;;10.07;2.13;;;3.10;99.90;;;;;;4862029;29;20063;-76
2022/02/01 06:44:40;;;;;;;11.75;2.33;;;3.10;99.90;;;;;;4862121;29;20134;-75
2022/02/01 06:47:08;;;;;;;14.95;2.33;;;3.10;99.90;;;;;;4862125;29;20144;-76
2022/02/01 06:49:35;;;;;;;9.88;2.15;;;3.10;99.90;;;;;;4861808;29;20538;-75
2022/02/01 06:52:02;;;;;;;10.15;2.17;;;3.10;99.90;;;;;;4861751;29;20057;-76
2022/02/01 06:54:30;;;;;;;14.85;2.78;;;3.10;99.90;;;;;;4862133;29;20053;-75
2022/02/01 06:56:58;;;;;;;11.80;2.35;;;3.10;99.90;;;;;;4861742;29;20046;-76
2022/02/01 06:59:25;;;;;;;10.90;2.42;;;3.20;99.90;;;;;;4861868;29;20049;-76
2022/02/01 07:01:52;;;;;;;9.60;1.83;;;3.10;99.90;;;;;;4861535;29;20060;-77
2022/02/01 07:04:19;;;;;;;10.55;2.40;;;3.20;99.90;;;;;;4861379;29;20049;-75
2022/02/01 07:06:46;;;;;;;11.45;1.92;;;3.20;99.90;;;;;;4861761;29;20075;-76
2022/02/01 07:09:14;;;;;;;11.65;2.00;;;3.20;99.90;;;;;;4861684;29;20136;-74
2022/02/01 07:11:41;;;;;;;8.07;1.73;;;3.20;99.90;;;;;;4861306;29;20049;-75
2022/02/01 07:14:10;;;;;;;11.80;1.95;;;3.20;99.90;;;;;;4861115;29;20591;-76
2022/02/01 07:16:37;;;;;;;12.55;2.45;;;3.20;99.90;;;;;;4861565;29;20128;-75
2022/02/01 07:19:04;;;;;;;15.55;2.15;;;3.20;99.90;;;;;;4861653;29;20140;-76
2022/02/01 07:21:31;;;;;;;9.68;2.88;;;3.20;99.90;;;;;;4861401;29;20132;-77
2022/02/01 07:24:00;;;;;;;12.80;2.25;;;3.20;99.90;;;;;;4861255;29;20460;-76
2022/02/01 07:26:27;;;;;;;9.73;1.95;;;3.20;99.90;;;;;;4861251;29;20128;-75
2022/02/01 07:28:54;;;;;;;10.90;2.10;;;3.20;99.90;;;;;;4861099;29;20491;-77
2022/02/01 07:31:23;;;;;;;9.48;2.53;;;3.20;99.90;;;;;;4861228;29;20136;-75
2022/02/01 07:33:50;;;;;;;8.95;2.30;;;3.20;99.90;;;;;;4861278;29;20131;-77
2022/02/01 07:36:17;;;;;;;8.98;2.17;;;3.20;99.90;;;;;;4861861;29;20060;-76
2022/02/01 07:38:45;;;;;;;7.85;2.10;;;3.30;99.90;;;;;;4864629;29;20492;-78
2022/02/01 07:41:12;;;;;;;10.77;2.97;;;3.30;99.90;;;;;;4862247;29;20100;-77
2022/02/01 07:43:39;;;;;;;9.23;2.30;;;3.30;99.90;;;;;;4861614;29;20106;-76
2022/02/01 07:46:09;;;;;;;10.07;2.10;;;3.30;99.90;;;;;;4863316;29;20141;-76
2022/02/01 07:48:38;;;;;;;13.00;2.58;;;3.40;99.90;;;;;;4866971;29;20054;-75
2022/02/01 07:51:05;;;;;;;11.95;2.50;;;3.40;99.90;;;;;;4870930;29;20069;-74
2022/02/01 07:53:32;;;;;;;11.27;2.35;;;3.40;99.90;;;;;;4864944;29;20080;-77
2022/02/01 07:55:59;;;;;;;11.25;2.38;;;3.40;99.90;;;;;;4862315;29;20109;-75
2022/02/01 07:58:26;;;;;;;7.72;1.98;;;3.40;99.90;;;;;;4849423;29;20049;-75
2022/02/01 08:00:54;;;;;;;11.80;1.83;;;3.40;99.90;;;;;;4860606;29;20049;-74
2022/02/01 08:03:21;;;;;;;10.68;2.63;;;3.40;99.90;;;;;;4861275;29;20057;-76
2022/02/01 08:05:49;;;;;;;14.55;2.20;;;3.40;99.90;;;;;;4865170;29;20559;-76
2022/02/01 08:08:16;;;;;;;11.75;2.42;;;3.40;99.90;;;;;;4861756;29;20085;-77
2022/02/01 08:10:47;;;;;;;10.35;2.10;;;3.40;99.90;;;;;;4861980;29;20136;-77
2022/02/01 08:21:42;;;;;;;9.73;2.42;;;3.50;99.90;;;;;;4837877;29;20110;-77
2022/02/01 08:24:10;;;;;;;9.18;2.33;;;3.50;99.80;;;;;;4861024;29;20054;-75
2022/02/01 08:26:37;;;;;;;7.55;2.05;;;3.60;99.90;;;;;;4861001;29;20052;-76
2022/02/01 08:29:05;;;;;;;11.25;2.10;;;3.60;99.90;;;;;;4861882;29;20049;-74
2022/02/01 08:31:33;;;;;;;9.38;2.00;;;3.60;99.90;;;;;;4863405;29;20410;-75
2022/02/01 08:34:00;;;;;;;10.30;1.95;;;3.60;99.90;;;;;;4860905;29;20141;-75
2022/02/01 08:36:27;;;;;;;10.80;2.13;;;3.70;99.90;;;;;;4860903;29;20136;-78
2022/02/01 08:38:55;;;;;;;11.13;2.35;;;3.70;99.90;;;;;;4860878;29;20050;-75
2022/02/01 08:41:23;;;;;;;10.40;2.55;;;3.80;99.90;;;;;;4861710;29;20049;-77
2022/02/01 08:43:50;;;;;;;8.05;2.25;;;3.80;99.90;;;;;;4860889;29;20067;-75
2022/02/01 08:46:20;;;;;;;12.32;2.53;;;3.80;99.90;;;;;;4860512;29;20050;-75
2022/02/01 08:48:47;;;;;;;9.95;2.40;;;3.80;99.90;;;;;;4860622;29;20045;-75
2022/02/01 08:51:16;;;;;;;11.75;2.08;;;3.80;99.80;;;;;;4861620;29;20053;-75
2022/02/01 08:53:53;;;;;;;8.25;2.53;;;3.80;99.90;;;;;;4866504;29;20056;-75
2022/02/01 08:59:06;;;;;;;14.50;2.40;;;3.80;99.90;;;;;;4864888;29;20178;-76
2022/02/01 09:01:35;;;;;;;9.48;2.03;;;3.80;99.70;;;;;;4866682;29;20113;-77
2022/02/01 09:04:02;;;;;;;8.15;1.80;;;3.80;99.90;;;;;;4865824;29;20065;-75
2022/02/01 09:06:30;;;;;;;9.88;2.08;;;3.80;99.90;;;;;;4866044;29;20100;-76
2022/02/01 09:08:57;;;;;;;8.70;2.13;;;3.80;99.90;;;;;;4864722;29;20106;-75
2022/02/01 09:11:25;;;;;;;9.70;2.25;;;3.90;99.90;;;;;;4865491;29;20128;-75
2022/02/01 09:13:52;;;;;;;7.82;2.10;;;3.90;99.90;;;;;;4864310;29;20056;-74
2022/02/01 09:16:21;;;;;;;8.30;2.38;;;4.00;99.90;;;;;;4865358;29;20511;-76
2022/02/01 09:18:49;;;;;;;12.25;2.25;;;4.00;99.90;;;;;;4864800;29;20143;-78
2022/02/01 09:21:17;;;;;;;10.27;2.00;;;4.10;99.90;;;;;;4864422;29;20049;-76
2022/02/01 09:23:44;;;;;;;8.25;1.98;;;4.10;99.70;;;;;;4863127;29;20562;-78
2022/02/01 09:26:11;;;;;;;8.88;2.15;;;4.10;99.70;;;;;;4862171;29;20534;-76
2022/02/01 09:28:40;;;;;;;7.15;1.80;;;4.10;99.50;;;;;;4850708;29;20061;-76
2022/02/01 09:31:08;;;;;;;9.60;1.85;;;4.00;99.80;;;;;;4859558;29;20472;-77
2022/02/01 09:33:35;;;;;;;8.88;1.95;;;4.10;99.70;;;;;;4864313;29;20050;-79
2022/02/01 09:36:02;;;;;;;11.70;2.13;;;4.10;99.80;;;;;;4863622;29;20136;-76
2022/02/01 09:38:31;;;;;;;11.75;2.25;;;4.00;99.80;;;;;;4863469;29;20050;-77
2022/02/01 09:41:00;;;;;;;8.75;2.40;;;4.10;99.60;;;;;;4863431;29;20081;-75
2022/02/01 09:43:27;;;;;;;8.63;1.77;;;4.10;99.60;;;;;;4862908;29;20061;-77
2022/02/01 09:45:58;;;;;;;7.35;1.95;;;4.10;99.60;;;;;;4862968;29;20140;-76
2022/02/01 09:48:25;;;;;;;7.75;2.33;;;4.10;99.50;;;;;;4863346;29;20055;-77
2022/02/01 09:50:52;;;;;;;7.63;1.90;;;4.10;99.90;;;;;;4863589;29;20049;-78
2022/02/01 09:53:21;;;;;;;6.40;1.48;;;4.20;99.90;;;;;;4863189;29;20144;-78
2022/02/01 09:55:48;;;;;;;5.65;1.40;;;4.20;99.80;;;;;;4863729;29;20050;-76
2022/02/01 09:58:16;;;;;;;8.60;1.70;;;4.20;99.90;;;;;;4862890;29;20148;-78
2022/02/01 10:00:47;;;;;;;8.68;1.63;;;4.20;99.90;;;;;;4862993;29;20046;-79
2022/02/01 10:03:20;;;;;;;9.55;2.20;;;4.20;99.90;;;;;;4863881;29;20068;-77
2022/02/01 10:06:07;;;;;;;6.07;1.50;;;4.20;99.90;;;;;;4862920;29;20124;-78
2022/02/01 10:08:34;;;;;;;7.25;1.73;;;4.20;99.90;;;;;;4862933;29;20472;-77
2022/02/01 10:11:02;;;;;;;6.75;1.80;;;4.20;99.90;;;;;;4863044;29;20053;-79
2022/02/01 10:13:33;;;;;;;5.35;1.70;;;4.10;99.90;;;;;;4862890;29;20113;-76
2022/02/01 10:16:09;;;;;;;5.30;1.60;;;4.20;99.80;;;;;;4862435;29;20056;-78
2022/02/01 10:18:38;;;;;;;5.57;1.27;;;4.20;99.90;;;;;;4862694;29;20053;-75
2022/02/01 10:21:07;;;;;;;6.57;1.38;;;4.20;99.40;;;;;;4862498;29;20140;-77
2022/02/01 10:23:35;;;;;;;7.00;1.60;;;4.20;99.90;;;;;;4862344;29;20096;-78
2022/02/01 10:26:07;;;;;;;6.75;1.98;;;4.20;99.90;;;;;;4862281;29;20145;-77
2022/02/01 10:28:51;;;;;;;4.43;1.20;;;4.20;99.90;;;;;;4862176;29;20559;-76
2022/02/01 10:31:23;;;;;;;;;;;4.30;99.90;;;;;;4862955;29;20049;-77
2022/02/01 10:34:01;;;;;;;5.15;1.35;;;4.30;99.50;;;;;;4862433;29;19924;-75
2022/02/01 10:36:40;;;;;;;6.10;1.40;;;4.30;99.80;;;;;;4862275;29;20061;-77
2022/02/01 10:39:20;;;;;;;5.10;1.20;;;4.30;99.50;;;;;;4862451;29;20060;-76
2022/02/01 10:42:00;;;;;;;6.50;1.30;;;4.30;99.60;;;;;;4862146;29;20133;-76
2022/02/01 10:44:42;;;;;;;5.97;1.40;;;4.40;99.80;;;;;;4862582;29;20148;-76
2022/02/01 10:47:12;;;;;;;4.70;1.30;;;4.40;99.20;;;;;;4864568;29;20486;-75
2022/02/01 10:49:41;;;;;;;6.28;1.58;;;4.40;99.70;;;;;;4864185;29;20144;-75
2022/02/01 10:52:11;;;;;;;6.65;1.40;;;4.50;98.80;;;;;;4863658;29;20140;-74
2022/02/01 10:54:40;;;;;;;6.18;1.60;;;4.50;99.00;;;;;;4861833;29;20487;-75
2022/02/01 10:57:09;;;;;;;6.55;1.70;;;4.40;98.90;;;;;;4861990;29;20506;-74
2022/02/01 10:59:38;;;;;;;6.20;1.95;;;4.40;98.70;;;;;;4861785;29;20053;-77
2022/02/01 11:02:06;;;;;;;7.32;1.65;;;4.40;98.80;;;;;;4861743;29;20056;-78
2022/02/01 11:04:37;;;;;;;8.95;1.50;;;4.40;98.70;;;;;;4861424;29;20049;-75
2022/02/01 11:07:07;;;;;;;7.88;1.33;;;4.40;98.60;;;;;;4861870;29;20049;-75
2022/02/01 11:09:35;;;;;;;6.32;1.48;;;4.40;98.40;;;;;;4861475;29;20049;-75
2022/02/01 11:12:08;;;;;;;8.57;1.85;;;4.40;98.50;;;;;;4859597;29;20050;-75
2022/02/01 11:14:41;;;;;;;6.50;1.20;;;4.30;98.60;;;;;;4860585;29;20053;-75
2022/02/01 11:17:11;;;;;;;5.50;1.45;;;4.30;98.80;;;;;;4860862;29;20049;-77
2022/02/01 11:19:51;;;;;;;6.03;1.60;;;4.30;98.50;;;;;;4861102;29;20132;-76
2022/02/01 11:22:31;;;;;;;7.38;1.30;;;4.30;98.60;;;;;;4861089;29;20057;-77
2022/02/01 11:25:00;;;;;;;5.70;1.52;;;4.30;98.40;;;;;;4860579;29;19927;-76
2022/02/01 11:27:40;;;;;;;5.18;1.30;;;4.30;98.00;;;;;;4860934;29;20136;-77
2022/02/01 11:30:12;;;;;;;11.15;1.60;;;4.40;97.90;;;;;;4861075;29;20136;-75
2022/02/01 11:32:48;;;;;;;7.07;1.80;;;4.40;98.00;;;;;;4861279;29;20088;-75
2022/02/01 11:35:22;;;;;;;9.48;1.98;;;4.40;97.80;;;;;;4859599;29;20060;-75
2022/02/01 11:37:54;;;;;;;8.95;1.52;;;4.40;97.70;;;;;;4861405;29;20065;-75
2022/02/01 11:40:24;;;;;;;8.90;1.77;;;4.40;97.50;;;;;;4861328;29;20128;-76
2022/02/01 11:42:58;;;;;;;6.55;2.03;;;4.40;97.70;;;;;;4861355;29;20045;-76
2022/02/01 11:45:28;;;;;;;;;;;4.40;97.70;;;;;;4861542;29;20053;-75
2022/02/01 11:47:58;;;;;;;7.38;1.50;;;4.40;97.60;;;;;;4862217;29;19983;-74
2022/02/01 11:50:27;;;;;;;7.78;1.70;;;4.50;97.40;;;;;;4861898;29;20046;-79
2022/02/01 11:53:00;;;;;;;8.75;1.55;;;4.40;97.00;;;;;;4861131;29;20057;-80
2022/02/01 11:55:32;;;;;;;7.65;1.98;;;4.40;97.10;;;;;;4861320;29;20060;-77
2022/02/01 11:58:05;;;;;;;9.75;1.92;;;4.40;97.00;;;;;;4861909;29;20132;-76
2022/02/01 12:00:39;;;;;;;9.07;1.60;;;4.40;97.60;;;;;;4860596;29;20085;-78
2022/02/01 12:03:09;;;;;;;10.05;1.92;;;4.40;97.60;;;;;;4860886;29;20153;-80
2022/02/01 12:05:39;;;;;;;6.43;1.70;;;4.40;97.90;;;;;;4860868;29;20053;-78
2022/02/01 12:08:12;;;;;;;7.72;1.85;;;4.30;98.30;;;;;;4860747;29;20081;-78
2022/02/01 12:10:41;;;;;;;7.13;1.70;;;4.30;98.40;;;;;;4860492;29;20056;-80
2022/02/01 12:13:10;;;;;;;6.75;1.77;;;4.30;98.60;;;;;;4857155;29;20041;-79
2022/02/01 12:15:40;;;;;;;5.47;1.60;;;4.20;98.50;;;;;;4860943;29;20049;-80
2022/02/01 12:18:14;;;;;;;7.15;1.55;;;4.20;99.10;;;;;;4860534;29;20563;-79
2022/02/01 12:20:44;;;;;;;6.72;1.60;;;4.10;99.20;;;;;;4860624;29;20140;-79
2022/02/01 12:23:25;;;;;;;9.13;2.75;;;4.10;99.70;;;;;;4860498;29;20080;-77
2022/02/01 12:25:53;;;;;;;9.82;1.60;;;4.00;99.80;;;;;;4861514;29;20137;-79
2022/02/01 12:28:23;;;;;;;6.57;1.80;;;4.10;99.60;;;;;;4864990;29;20516;-78
2022/02/01 12:30:51;;;;;;;6.35;1.40;;;4.00;99.80;;;;;;4864680;29;20128;-79
2022/02/01 12:33:21;;;;;;;7.97;1.30;;;4.10;99.40;;;;;;4865087;29;20046;-80
2022/02/01 12:35:52;;;;;;;6.90;1.40;;;4.10;99.10;;;;;;4865207;29;20095;-80
2022/02/01 12:38:22;;;;;;;7.55;1.40;;;4.10;99.40;;;;;;4864583;29;20556;-75
2022/02/01 12:40:59;;;;;;;4.47;1.17;;;4.10;99.50;;;;;;4863684;29;20514;-74
2022/02/01 12:43:29;;;;;;;8.50;1.70;;;4.10;99.90;;;;;;4864067;29;20397;-78
2022/02/01 12:46:05;;;;;;;7.18;1.45;;;4.10;99.90;;;;;;4864214;29;20045;-76
2022/02/01 12:48:33;;;;;;;5.85;1.27;;;4.10;99.60;;;;;;4864300;29;20053;-73
2022/02/01 12:51:04;;;;;;;7.22;1.38;;;4.10;99.40;;;;;;4864112;29;20045;-73
2022/02/01 12:53:40;;;;;;;5.53;1.30;;;4.10;99.20;;;;;;4863519;29;20156;-77
2022/02/01 12:56:17;;;;;;;5.45;1.27;;;4.10;98.70;;;;;;4864143;29;20057;-74
2022/02/01 12:58:44;;;;;;;6.70;1.20;;;4.10;98.10;;;;;;4853149;29;20085;-74
2022/02/01 13:01:11;;;;;;;6.45;1.30;;;4.20;97.50;;;;;;4862599;29;20128;-76
2022/02/01 13:03:44;;;;;;;6.35;1.00;;;4.20;97.30;;;;;;4858378;29;20129;-75
2022/02/01 13:06:13;;;;;;;7.22;1.30;;;4.30;97.10;;;;;;4852082;29;20053;-76
2022/02/01 13:14:35;;;;;;;5.10;1.10;;;4.30;96.60;;;;;;4863693;29;20065;-73
2022/02/01 13:17:16;;;;;;;4.78;1.30;;;4.40;96.60;;;;;;4863540;29;20097;-75
2022/02/01 13:20:05;;;;;;;5.80;1.17;;;4.40;96.20;;;;;;4863231;29;20049;-74
2022/02/01 13:22:32;;;;;;;4.00;0.90;;;4.40;96.10;;;;;;4863413;29;20050;-74
2022/02/01 13:25:06;;;;;;;3.72;1.02;;;4.40;96.30;;;;;;4862816;29;20140;-76
2022/02/01 13:27:35;;;;;;;6.07;1.30;;;4.40;96.20;;;;;;4861702;29;20109;-74
2022/02/01 13:30:05;;;;;;;4.13;0.95;;;4.40;96.10;;;;;;4862518;29;20480;-75
2022/02/01 13:32:37;;;;;;;4.82;1.00;;;4.40;96.10;;;;;;4863180;29;20141;-76
2022/02/01 13:35:08;;;;;;;5.65;1.08;;;4.50;96.10;;;;;;4863110;29;20054;-74
2022/02/01 13:37:37;;;;;;;6.40;1.20;;;4.50;96.30;;;;;;4862668;29;20137;-77
2022/02/01 13:40:05;;;;;;;3.92;0.90;;;4.50;96.60;;;;;;4862661;29;20393;-75
2022/02/01 13:42:36;;;;;;;6.15;1.25;;;4.50;96.70;;;;;;4862062;29;20049;-74
2022/02/01 13:45:08;;;;;;;5.45;1.30;;;4.50;96.40;;;;;;4862381;29;20074;-75
2022/02/01 13:47:38;;;;;;;8.73;1.52;;;4.50;96.60;;;;;;4862659;29;20061;-74
2022/02/01 13:50:10;;;;;;;6.57;1.30;;;4.50;96.20;;;;;;4862690;29;20057;-77
2022/02/01 13:52:38;;;;;;;4.25;1.20;;;4.50;96.30;;;;;;4863759;29;20054;-75
2022/02/01 13:55:18;;;;;;;8.00;3.17;;;4.40;96.40;;;;;;4861201;29;20060;-73
2022/02/01 13:57:46;;;;;;;9.43;2.60;;;4.50;96.60;;;;;;4862382;29;20133;-74
2022/02/01 14:00:14;;;;;;;11.52;3.78;;;4.40;96.80;;;;;;4852417;29;20136;-76
2022/02/01 14:02:46;;;;;;;5.75;1.20;;;4.40;97.10;;;;;;4862684;29;20136;-75
2022/02/01 14:05:24;;;;;;;5.45;1.30;;;4.40;97.80;;;;;;4862431;29;20496;-74
2022/02/01 14:10:47;;;;;;;4.88;1.35;;;4.30;98.20;;;;;;4849169;29;20065;-74
2022/02/01 14:13:55;;;;;;;6.15;1.58;;;4.30;98.30;;;;;;4862279;29;20053;-78
2022/02/01 14:22:28;;;;;;;5.28;1.50;;;4.30;98.50;;;;;;4862195;29;20049;-77
2022/02/01 14:27:48;;;;;;;2.90;1.08;;;4.20;99.00;;;;;;4861727;29;20041;-75
2022/02/01 14:35:45;;;;;;;5.38;1.00;;;4.20;99.60;;;;;;4845968;29;20054;-77
2022/02/01 14:38:32;;;;;;;3.33;1.17;;;4.10;99.50;;;;;;4861967;29;20084;-78
2022/02/01 14:43:50;;;;;;;4.38;0.95;;;4.00;99.60;;;;;;4843660;29;20068;-75
2022/02/01 14:46:19;;;;;;;4.68;1.10;;;4.00;99.80;;;;;;4842048;29;20053;-75
2022/02/01 14:48:46;;;;;;;4.25;1.10;;;4.00;99.90;;;;;;4842749;29;20420;-75
2022/02/01 14:51:13;;;;;;;7.13;1.73;;;4.00;99.90;;;;;;4848490;29;20088;-75
2022/02/01 14:53:40;;;;;;;4.85;1.33;;;3.90;99.90;;;;;;4861523;29;20198;-76
2022/02/01 14:56:13;;;;;;;5.68;1.48;;;3.90;99.90;;;;;;4861662;29;20049;-74
2022/02/01 15:04:29;;;;;;;4.45;0.93;;;3.90;99.90;;;;;;4842858;29;20520;-75
2022/02/01 15:07:03;;;;;;;3.63;1.20;;;3.90;99.90;;;;;;4843013;29;20103;-74
2022/02/01 15:12:38;;;;;;;4.43;1.60;;;3.80;99.90;;;;;;4844257;29;20065;-75
2022/02/01 15:15:06;;;;;;;9.63;3.80;;;3.80;99.90;;;;;;4861671;29;20053;-78
2022/02/01 15:17:35;;;;;;;4.50;1.20;;;3.70;99.90;;;;;;4861009;29;20132;-76
2022/02/01 15:20:05;;;;;;;4.00;1.00;;;3.70;99.90;;;;;;4861204;29;20059;-75
2022/02/01 15:22:32;;;;;;;2.25;0.90;;;3.70;99.90;;;;;;4861483;29;20053;-75
2022/02/01 15:24:59;;;;;;;3.75;1.10;;;3.60;99.90;;;;;;4861022;29;20483;-74
2022/02/01 15:27:26;;;;;;;3.47;1.00;;;3.60;99.90;;;;;;4861164;29;20152;-75
2022/02/01 15:29:53;;;;;;;4.10;1.10;;;3.60;99.90;;;;;;4860868;29;20054;-77
2022/02/01 15:32:20;;;;;;;4.72;1.10;;;3.60;99.90;;;;;;4860653;29;20061;-75
2022/02/01 15:34:49;;;;;;;3.97;1.00;;;3.60;99.90;;;;;;4860488;29;20136;-75
2022/02/01 15:37:20;;;;;;;2.90;1.20;;;3.60;99.90;;;;;;4860645;29;20132;-76
2022/02/01 15:59:02;;;;;;;3.03;1.13;;;3.70;99.90;;;;;;4856088;29;20137;-78
2022/02/01 16:01:40;;;;;;;5.57;1.50;;;3.70;99.90;;;;;;4842397;29;20054;-78
2022/02/01 16:04:07;;;;;;;3.00;1.00;;;3.70;99.90;;;;;;4848239;29;20415;-78
2022/02/01 16:06:38;;;;;;;4.07;1.20;;;3.70;99.90;;;;;;4860723;29;20049;-78
2022/02/01 16:09:13;;;;;;;3.55;1.17;;;3.70;99.90;;;;;;4860720;29;20241;-78
2022/02/01 16:11:42;;;;;;;2.70;1.00;;;3.70;99.90;;;;;;4859961;29;20054;-76
2022/02/01 16:14:10;;;;;;;3.45;1.10;;;3.70;99.90;;;;;;4860671;29;20136;-80
2022/02/01 16:16:38;;;;;;;3.22;1.10;;;3.70;99.90;;;;;;4861269;29;20148;-77
2022/02/01 16:19:06;;;;;;;3.25;0.90;;;3.70;99.90;;;;;;4860200;29;20564;-78
2022/02/01 16:21:36;;;;;;;4.05;1.10;;;3.70;99.90;;;;;;4861737;29;20084;-76
2022/02/01 16:24:05;;;;;;;2.60;0.88;;;3.70;99.90;;;;;;4861290;29;20073;-78
2022/02/01 16:26:32;;;;;;;5.88;1.10;;;3.70;99.90;;;;;;4861083;29;20559;-77
2022/02/01 16:28:59;;;;;;;5.82;1.30;;;3.70;99.90;;;;;;4860337;29;20057;-75
2022/02/01 16:31:29;;;;;;;4.07;1.30;;;3.70;99.90;;;;;;4861037;29;20148;-76
2022/02/01 16:33:58;;;;;;;5.68;1.30;;;3.70;99.90;;;;;;4860125;29;20061;-77
2022/02/01 16:36:26;;;;;;;3.63;1.00;;;3.80;99.90;;;;;;4848762;29;20057;-76
2022/02/01 16:38:55;;;;;;;4.68;1.50;;;3.70;99.90;;;;;;4860570;29;20052;-76
2022/02/01 16:41:23;;;;;;;7.13;2.17;;;3.80;99.90;;;;;;4852682;29;20473;-79
2022/02/01 16:43:50;;;;;;;5.85;1.40;;;3.80;99.90;;;;;;4852075;29;20058;-78
2022/02/01 16:46:21;;;;;;;4.10;1.20;;;3.80;99.90;;;;;;4842167;29;20145;-78
2022/02/01 16:48:49;;;;;;;5.15;1.13;;;3.80;99.90;;;;;;4848667;29;20496;-79
2022/02/01 16:51:16;;;;;;;4.85;1.20;;;3.80;99.90;;;;;;4851330;29;20058;-77
2022/02/01 16:53:47;;;;;;;3.95;1.20;;;3.80;99.90;;;;;;4853578;29;20041;-77
2022/02/01 16:56:19;;;;;;;3.25;1.17;;;3.80;99.90;;;;;;4860220;29;20381;-77
2022/02/01 16:58:53;;;;;;;3.75;1.33;;;3.90;99.90;;;;;;4859769;29;20077;-78
2022/02/01 17:01:20;;;;;;;4.63;1.20;;;3.90;99.90;;;;;;4860318;29;20114;-78
2022/02/01 17:03:47;;;;;;;4.25;1.17;;;3.90;99.90;;;;;;4860585;29;20053;-80
2022/02/01 17:06:16;;;;;;;2.65;1.17;;;3.90;99.90;;;;;;4860271;29;20494;-76
2022/02/01 17:08:44;;;;;;;3.25;1.15;;;3.90;99.90;;;;;;4859669;29;20136;-78
2022/02/01 17:11:21;;;;;;;3.60;1.40;;;3.90;99.90;;;;;;4860064;29;20411;-79
2022/02/01 17:14:01;;;;;;;3.38;1.20;;;3.90;99.90;;;;;;4863113;29;20101;-81
2022/02/01 17:19:32;;;;;;;5.50;1.40;;;3.90;99.90;;;;;;4844117;29;20175;-78
2022/02/01 17:21:59;;;;;;;6.03;2.00;;;3.90;99.90;;;;;;4863465;29;20046;-78
2022/02/01 17:24:28;;;;;;;8.45;3.80;;;3.90;99.90;;;;;;4863312;29;20105;-78
2022/02/01 17:26:57;;;;;;;3.60;1.38;;;3.90;99.90;;;;;;4863489;29;20064;-79
2022/02/01 17:29:25;;;;;;;3.97;1.50;;;3.90;99.90;;;;;;4863558;29;20477;-79
2022/02/01 17:31:52;;;;;;;4.07;1.40;;;3.90;99.90;;;;;;4863533;29;20137;-80
2022/02/01 17:34:19;;;;;;;5.25;1.63;;;3.90;99.90;;;;;;4863867;29;20417;-79
2022/02/01 17:36:46;;;;;;;3.20;1.20;;;3.90;99.90;;;;;;4863024;29;20053;-80
2022/02/01 17:39:13;;;;;;;3.53;1.25;;;4.00;99.90;;;;;;4862670;29;20049;-78
2022/02/01 17:41:41;;;;;;;4.28;1.30;;;4.00;99.90;;;;;;4856081;29;20568;-79
2022/02/01 17:44:10;;;;;;;3.30;1.20;;;4.00;99.90;;;;;;4858112;29;20056;-78
2022/02/01 17:46:41;;;;;;;4.13;1.20;;;4.00;99.90;;;;;;4863070;29;20081;-79
2022/02/01 17:49:13;;;;;;;4.60;1.65;;;4.10;99.90;;;;;;4857325;29;20128;-77
2022/02/01 17:52:00;;;;;;;3.10;1.10;;;4.10;99.90;;;;;;4855017;29;20514;-79
2022/02/01 17:54:28;;;;;;;3.25;1.23;;;4.10;99.90;;;;;;4849601;29;20052;-77
2022/02/01 17:56:56;;;;;;;3.38;1.10;;;4.10;99.90;;;;;;4859189;29;20550;-77
2022/02/01 17:59:25;;;;;;;3.45;1.20;;;4.10;99.90;;;;;;4861465;29;20520;-78
2022/02/01 18:01:54;;;;;;;3.60;1.25;;;4.10;99.90;;;;;;4861598;29;20053;-77
2022/02/01 18:04:21;;;;;;;3.17;1.10;;;4.10;99.90;;;;;;4862442;29;20073;-76
2022/02/01 18:06:49;;;;;;;2.97;1.00;;;4.10;99.90;;;;;;4861848;29;20089;-75
2022/02/01 18:09:23;;;;;;;4.72;1.20;;;4.10;99.90;;;;;;4862606;29;20076;-74
2022/02/01 18:11:56;;;;;;;3.95;1.70;;;4.10;99.90;;;;;;4862376;29;20053;-74
2022/02/01 18:14:24;;;;;;;3.72;1.20;;;4.10;99.90;;;;;;4860456;29;20214;-78
2022/02/01 18:16:54;;;;;;;3.03;1.02;;;4.10;99.90;;;;;;4861446;29;20056;-75
2022/02/01 18:19:22;;;;;;;3.10;1.20;;;4.10;99.90;;;;;;4862243;29;20077;-76
2022/02/01 18:21:56;;;;;;;3.10;1.02;;;4.10;99.90;;;;;;4862431;29;20128;-75
2022/02/01 18:24:23;;;;;;;2.80;0.90;;;4.10;99.90;;;;;;4861114;29;20056;-79
2022/02/01 18:26:50;;;;;;;3.42;1.10;;;4.10;99.90;;;;;;4861525;29;20050;-75
2022/02/01 18:29:19;;;;;;;2.95;1.20;;;4.00;99.90;;;;;;4854260;29;20058;-74
2022/02/01 18:31:46;;;;;;;2.78;0.95;;;4.00;99.90;;;;;;4861566;29;20136;-76
2022/02/01 18:34:15;;;;;;;2.08;0.93;;;4.00;99.90;;;;;;4860562;29;20071;-76
2022/02/01 18:36:44;;;;;;;4.60;1.20;;;4.00;99.90;;;;;;4848281;29;20411;-78
2022/02/01 18:39:14;;;;;;;3.65;1.00;;;4.00;99.90;;;;;;4860589;29;20504;-77
2022/02/01 18:41:42;;;;;;;5.90;1.90;;;4.10;99.90;;;;;;4861145;29;20482;-74
2022/02/01 18:44:13;;;;;;;7.43;2.60;;;4.10;99.90;;;;;;4861737;29;20061;-76
2022/02/01 18:46:50;;;;;;;2.22;0.90;;;4.10;99.90;;;;;;4843181;29;20054;-78
2022/02/01 18:49:27;;;;;;;2.38;0.93;;;4.10;99.90;;;;;;4860296;29;20045;-76
2022/02/01 18:52:08;;;;;;;3.67;0.90;;;4.20;99.90;;;;;;4857786;29;20046;-74
2022/02/01 18:54:50;;;;;;;3.00;0.90;;;4.20;99.90;;;;;;4853742;29;20061;-77
2022/02/01 18:57:24;;;;;;;3.38;0.80;;;4.20;99.90;;;;;;4861146;29;20498;-77
2022/02/01 19:00:09;;;;;;;2.42;0.98;;;4.20;99.90;;;;;;4860991;29;20046;-73